sim
Sign-in with your pilot id or email,
or register
Callsign
Passwort

Schedule Details

Flight Number: EWG1918
Departure: Munich Airport (EDDM) at 18:15
Arrival: Dusseldorf International Airport (EDDL) at 19:30
Route: Eurowings Passenger Schedule. Enter filed route here before submitting Pirep.

Weather Information
Getting current METAR information for EDDM 191420Z 04003KT 290V070 CAVOK 22/12 Q1018 NOSIG
Getting current METAR information for EDDL 191420Z 08006KT 030V160 CAVOK 27/04 Q1016 NOSIG

Schedule Frequency

Route Map